Time;durP1;ratioP1;P1;durP2;ratioP2;P2;SDS_P1;SDS_P2;PMS_P1;PMS_P2;Temp;Humidity;BMP_temperature;BMP_pressure;BME280_temperature;BME280_humidity;BME280_pressure;Samples;Min_cycle;Max_cycle;Signal;HPM_P1;HPM_P2
2022/07/22 00:01:19;;;;;;;5.93;4.07;;;18.40;99.90;;;;;;5109140;28;21196;-80
2022/07/22 00:03:46;;;;;;;5.30;4.30;;;18.30;99.90;;;;;;5108766;28;20680;-81
2022/07/22 00:06:13;;;;;;;5.33;4.20;;;18.30;99.90;;;;;;5108471;28;21165;-81
2022/07/22 00:08:40;;;;;;;5.13;3.70;;;18.30;99.90;;;;;;5108735;28;20722;-80
2022/07/22 00:11:09;;;;;;;5.00;4.50;;;18.20;99.90;;;;;;5108241;28;20622;-80
2022/07/22 00:13:37;;;;;;;4.57;4.17;;;18.10;99.90;;;;;;5108145;28;20656;-82
2022/07/22 00:16:06;;;;;;;5.33;3.83;;;18.30;99.90;;;;;;5108580;28;20616;-80
2022/07/22 00:18:34;;;;;;;3.53;3.23;;;18.20;99.90;;;;;;5108840;28;20726;-81
2022/07/22 00:21:02;;;;;;;4.73;4.33;;;18.20;99.90;;;;;;5108824;28;20623;-82
2022/07/22 00:23:30;;;;;;;4.67;4.27;;;18.30;99.90;;;;;;5108004;28;21280;-80
2022/07/22 00:25:59;;;;;;;4.80;4.30;;;18.30;99.90;;;;;;5107741;28;20665;-81
2022/07/22 00:28:27;;;;;;;6.10;5.03;;;18.20;99.90;;;;;;5108691;28;20727;-82
2022/07/22 00:30:54;;;;;;;4.23;3.83;;;18.30;99.90;;;;;;5108331;28;20618;-80
2022/07/22 00:33:21;;;;;;;5.80;4.67;;;18.20;99.90;;;;;;5108407;28;20619;-81
2022/07/22 00:35:49;;;;;;;4.80;4.23;;;18.20;99.90;;;;;;5094877;28;21253;-80
2022/07/22 00:38:17;;;;;;;3.60;3.20;;;18.00;99.90;;;;;;5088148;28;20612;-81
2022/07/22 00:40:44;;;;;;;4.23;3.83;;;18.00;99.90;;;;;;5092059;28;20973;-81
2022/07/22 00:43:12;;;;;;;3.97;3.57;;;17.90;99.90;;;;;;5108250;28;20612;-81
2022/07/22 00:45:40;;;;;;;4.10;3.70;;;18.00;99.90;;;;;;5108341;28;20612;-81
2022/07/22 00:48:08;;;;;;;3.90;3.60;;;18.00;99.90;;;;;;5107422;28;20646;-81
2022/07/22 00:50:36;;;;;;;4.20;3.50;;;17.90;99.90;;;;;;5108101;28;20620;-81
2022/07/22 00:53:05;;;;;;;3.50;3.20;;;17.90;99.90;;;;;;5107258;28;21164;-80
2022/07/22 00:55:34;;;;;;;4.47;4.07;;;17.90;99.90;;;;;;5107821;28;20652;-81
2022/07/22 00:58:01;;;;;;;5.37;3.63;;;17.90;99.90;;;;;;5108340;28;20608;-80
2022/07/22 01:00:28;;;;;;;3.57;3.27;;;17.80;99.90;;;;;;5107901;28;20619;-81
2022/07/22 01:02:57;;;;;;;4.23;3.60;;;17.90;99.90;;;;;;5107740;28;20635;-80
2022/07/22 01:05:24;;;;;;;3.57;3.10;;;17.80;99.90;;;;;;5107063;28;20647;-80
2022/07/22 01:07:51;;;;;;;6.20;4.60;;;17.80;99.90;;;;;;5106958;28;20620;-81
2022/07/22 01:10:18;;;;;;;4.40;4.10;;;17.90;99.90;;;;;;5107869;28;20604;-80
2022/07/22 01:12:46;;;;;;;3.70;3.40;;;17.80;99.90;;;;;;5107268;28;20608;-80
2022/07/22 01:15:19;;;;;;;5.97;4.23;;;17.80;99.90;;;;;;5107947;28;20679;-81
2022/07/22 01:17:46;;;;;;;4.03;3.40;;;17.80;99.90;;;;;;5108422;28;20603;-80
2022/07/22 01:20:16;;;;;;;4.60;3.27;;;17.70;99.90;;;;;;5107638;28;20611;-80
2022/07/22 01:22:44;;;;;;;3.77;3.17;;;17.70;99.90;;;;;;5109956;28;20661;-80
2022/07/22 01:25:12;;;;;;;5.70;3.83;;;17.70;99.90;;;;;;5111611;28;20676;-81
2022/07/22 01:27:39;;;;;;;4.67;3.73;;;17.60;99.90;;;;;;5111930;28;21072;-81
2022/07/22 01:30:08;;;;;;;3.90;3.40;;;17.60;99.90;;;;;;5111811;28;20623;-81
2022/07/22 01:32:36;;;;;;;4.00;3.40;;;17.60;99.90;;;;;;5110856;28;20615;-81
2022/07/22 01:35:05;;;;;;;5.97;4.87;;;17.70;99.90;;;;;;5111407;28;20667;-81
2022/07/22 01:37:35;;;;;;;4.10;3.80;;;17.60;99.90;;;;;;5111710;28;20603;-81
2022/07/22 01:40:02;;;;;;;5.10;3.83;;;17.50;99.90;;;;;;5111684;28;20615;-81
2022/07/22 01:42:31;;;;;;;5.33;4.40;;;17.50;99.90;;;;;;5111028;28;20967;-80
2022/07/22 01:44:59;;;;;;;3.90;3.23;;;17.40;99.90;;;;;;5111237;28;20607;-81
2022/07/22 01:47:27;;;;;;;4.70;3.60;;;17.40;99.90;;;;;;5110942;28;20618;-80
2022/07/22 01:49:54;;;;;;;4.43;3.70;;;17.50;99.90;;;;;;5111538;28;20642;-81
2022/07/22 01:52:22;;;;;;;4.20;3.80;;;17.60;99.90;;;;;;5110773;28;20710;-82
2022/07/22 01:54:51;;;;;;;4.50;4.10;;;17.50;99.90;;;;;;5111739;28;20650;-82
2022/07/22 01:57:18;;;;;;;3.90;3.40;;;17.40;99.90;;;;;;5111789;28;20603;-81
2022/07/22 01:59:45;;;;;;;3.70;3.40;;;17.40;99.90;;;;;;5111216;28;20607;-81
2022/07/22 02:02:12;;;;;;;3.77;3.37;;;17.40;99.90;;;;;;5110697;28;21261;-80
2022/07/22 02:04:39;;;;;;;3.47;3.03;;;17.40;99.90;;;;;;5110899;28;21005;-81
2022/07/22 02:07:06;;;;;;;4.00;3.53;;;17.30;99.90;;;;;;5111212;28;20907;-81
2022/07/22 02:09:33;;;;;;;4.50;3.87;;;17.30;99.90;;;;;;5111265;28;20661;-81
2022/07/22 02:12:01;;;;;;;4.93;4.17;;;17.30;99.90;;;;;;5111088;28;20742;-80
2022/07/22 02:14:28;;;;;;;4.27;3.83;;;17.20;99.90;;;;;;5110072;28;20748;-81
2022/07/22 02:16:57;;;;;;;3.47;3.17;;;17.30;99.90;;;;;;5111257;28;20722;-81
2022/07/22 02:19:24;;;;;;;4.43;4.03;;;17.20;99.90;;;;;;5110920;28;21294;-81
2022/07/22 02:21:51;;;;;;;15.83;4.10;;;17.20;99.90;;;;;;5110889;28;20664;-81
2022/07/22 02:24:18;;;;;;;4.27;3.40;;;17.20;99.90;;;;;;5110139;28;20680;-80
2022/07/22 02:26:44;;;;;;;5.70;3.57;;;17.20;99.90;;;;;;5110141;28;20718;-81
2022/07/22 02:29:13;;;;;;;4.50;3.43;;;17.10;99.90;;;;;;5110939;28;20677;-81
2022/07/22 02:31:40;;;;;;;4.60;4.13;;;17.20;99.90;;;;;;5110855;28;20623;-80
2022/07/22 02:34:07;;;;;;;4.00;3.20;;;17.20;99.90;;;;;;5109942;28;20726;-80
2022/07/22 02:36:33;;;;;;;4.80;3.80;;;17.10;99.90;;;;;;5110527;28;20643;-81
2022/07/22 02:39:00;;;;;;;3.50;3.20;;;17.10;99.90;;;;;;5110540;28;20607;-81
2022/07/22 02:41:27;;;;;;;3.53;3.23;;;17.10;99.90;;;;;;5109859;28;20676;-81
2022/07/22 02:43:54;;;;;;;3.27;2.97;;;17.10;99.90;;;;;;5110258;28;20619;-80
2022/07/22 02:46:23;;;;;;;4.00;3.60;;;17.10;99.90;;;;;;5110953;28;20639;-81
2022/07/22 02:48:50;;;;;;;5.13;3.57;;;17.10;99.90;;;;;;5109690;28;20627;-81
2022/07/22 02:51:18;;;;;;;5.17;4.20;;;17.10;99.90;;;;;;5110277;28;20709;-81
2022/07/22 02:53:44;;;;;;;4.03;3.67;;;17.10;99.90;;;;;;5109652;28;20643;-80
2022/07/22 02:56:11;;;;;;;4.33;3.93;;;17.10;99.90;;;;;;5109777;28;20647;-80
2022/07/22 02:58:38;;;;;;;4.80;3.47;;;17.10;99.90;;;;;;5110232;28;20736;-81
2022/07/22 03:01:05;;;;;;;3.70;3.20;;;17.00;99.90;;;;;;5110329;28;20612;-81
2022/07/22 03:03:33;;;;;;;4.80;3.90;;;17.00;99.90;;;;;;5110013;28;20658;-81
2022/07/22 03:06:00;;;;;;;3.80;3.43;;;17.10;99.90;;;;;;5110333;28;20615;-80
2022/07/22 03:08:27;;;;;;;3.70;3.33;;;17.00;99.90;;;;;;5109541;28;20624;-81
2022/07/22 03:10:54;;;;;;;3.90;3.60;;;17.00;99.90;;;;;;5110183;28;20608;-81
2022/07/22 03:13:21;;;;;;;6.70;4.20;;;17.10;99.90;;;;;;5109413;28;20607;-81
2022/07/22 03:15:48;;;;;;;4.53;3.77;;;17.00;99.90;;;;;;5110075;28;20766;-81
2022/07/22 03:18:15;;;;;;;3.83;3.43;;;17.00;99.90;;;;;;5110291;28;20642;-79
2022/07/22 03:20:43;;;;;;;7.77;3.77;;;17.00;99.90;;;;;;5109853;28;20651;-81
2022/07/22 03:23:10;;;;;;;3.60;3.30;;;17.00;99.90;;;;;;5109702;28;20661;-81
2022/07/22 03:25:38;;;;;;;4.83;3.67;;;17.00;99.90;;;;;;5109736;27;20635;-80
2022/07/22 03:28:05;;;;;;;5.27;4.33;;;16.90;99.90;;;;;;5109910;28;20626;-81
2022/07/22 03:30:32;;;;;;;4.80;4.40;;;16.90;99.90;;;;;;5109638;28;20643;-81
2022/07/22 03:32:59;;;;;;;6.30;4.43;;;16.90;99.90;;;;;;5109067;28;22529;-81
2022/07/22 03:35:26;;;;;;;4.60;4.10;;;16.90;99.90;;;;;;5108816;28;20775;-81
2022/07/22 03:37:54;;;;;;;3.60;3.13;;;16.80;99.90;;;;;;5109304;28;20701;-81
2022/07/22 03:40:21;;;;;;;3.73;3.40;;;16.80;99.90;;;;;;5108994;28;21001;-80
2022/07/22 03:42:48;;;;;;;4.63;4.23;;;16.80;99.90;;;;;;5109047;28;20680;-80
2022/07/22 03:45:15;;;;;;;3.73;3.33;;;16.80;99.90;;;;;;5108647;28;20608;-81
2022/07/22 03:47:42;;;;;;;4.87;3.70;;;16.80;99.90;;;;;;5108554;27;20724;-80
2022/07/22 03:50:09;;;;;;;5.43;4.90;;;16.70;99.90;;;;;;5108677;28;20631;-81
2022/07/22 03:52:36;;;;;;;4.73;4.20;;;16.80;99.90;;;;;;5108871;28;20627;-81
2022/07/22 03:55:06;;;;;;;3.70;3.40;;;16.80;99.90;;;;;;5108892;28;20771;-81
2022/07/22 03:57:36;;;;;;;6.23;4.30;;;16.80;99.90;;;;;;5109071;28;20631;-80
2022/07/22 04:00:04;;;;;;;6.17;4.43;;;16.80;99.90;;;;;;5109118;28;20639;-80
2022/07/22 04:02:31;;;;;;;5.70;4.10;;;16.80;99.90;;;;;;5107882;28;20616;-80
2022/07/22 04:04:58;;;;;;;5.37;4.60;;;16.70;99.90;;;;;;5108930;28;21193;-81
2022/07/22 04:07:25;;;;;;;3.33;3.03;;;16.70;99.90;;;;;;5109029;28;20727;-80
2022/07/22 04:09:51;;;;;;;4.83;4.17;;;16.70;99.90;;;;;;5109124;27;20600;-81
2022/07/22 04:12:21;;;;;;;4.40;4.00;;;16.70;99.90;;;;;;5108073;28;21264;-80
2022/07/22 04:14:47;;;;;;;5.47;4.53;;;16.60;99.90;;;;;;5109409;28;20707;-81
2022/07/22 04:17:14;;;;;;;4.13;3.57;;;16.60;99.90;;;;;;5108208;28;20644;-81
2022/07/22 04:19:41;;;;;;;4.70;4.10;;;16.70;99.90;;;;;;5108886;28;20625;-80
2022/07/22 04:22:08;;;;;;;4.97;4.47;;;16.90;99.90;;;;;;5108152;28;21012;-81
2022/07/22 04:24:35;;;;;;;4.77;4.20;;;16.90;99.90;;;;;;5108438;28;20648;-80
2022/07/22 04:27:02;;;;;;;6.63;3.90;;;16.90;99.90;;;;;;5108555;28;20615;-81
2022/07/22 04:29:30;;;;;;;4.00;3.53;;;16.80;99.90;;;;;;5108627;28;20607;-80
2022/07/22 04:31:57;;;;;;;3.30;2.93;;;16.80;99.90;;;;;;5108566;28;20670;-81
2022/07/22 04:34:24;;;;;;;6.57;4.10;;;16.80;99.90;;;;;;5107850;28;20978;-80
2022/07/22 04:36:50;;;;;;;5.37;4.33;;;16.80;99.90;;;;;;5108455;28;20655;-80
2022/07/22 04:39:17;;;;;;;4.60;4.10;;;16.90;99.90;;;;;;5109024;28;20610;-81
2022/07/22 04:41:44;;;;;;;5.83;4.00;;;17.00;99.90;;;;;;5108124;28;20620;-79
2022/07/22 04:44:11;;;;;;;5.30;4.13;;;17.00;99.90;;;;;;5108258;28;20611;-80
2022/07/22 04:46:39;;;;;;;5.50;4.20;;;17.10;99.90;;;;;;5108305;28;21412;-80
2022/07/22 04:49:06;;;;;;;5.17;3.93;;;17.00;99.90;;;;;;5107285;28;20696;-80
2022/07/22 04:51:33;;;;;;;5.23;3.57;;;17.10;99.90;;;;;;5108609;28;20618;-81
2022/07/22 04:54:00;;;;;;;5.90;4.87;;;17.20;99.90;;;;;;5107952;28;20719;-80
2022/07/22 04:56:27;;;;;;;5.00;4.57;;;17.20;99.90;;;;;;5111796;28;20659;-81
2022/07/22 04:58:54;;;;;;;4.87;4.17;;;17.30;99.90;;;;;;5114614;27;20739;-80
2022/07/22 05:01:21;;;;;;;4.53;4.13;;;17.40;99.90;;;;;;5115966;27;21075;-80
2022/07/22 05:03:49;;;;;;;4.60;3.40;;;17.40;99.90;;;;;;5114491;27;20616;-81
2022/07/22 05:06:16;;;;;;;4.00;3.60;;;17.40;99.90;;;;;;5114948;27;20708;-80
2022/07/22 05:08:43;;;;;;;8.40;4.10;;;17.50;99.90;;;;;;5114985;27;20707;-81
2022/07/22 05:11:10;;;;;;;6.70;4.30;;;17.50;99.90;;;;;;5114648;27;20681;-80
2022/07/22 05:13:37;;;;;;;4.37;3.93;;;17.60;99.90;;;;;;5114160;27;20643;-80
2022/07/22 05:16:04;;;;;;;7.23;4.80;;;17.60;99.90;;;;;;5115244;27;20748;-80
2022/07/22 05:18:31;;;;;;;6.10;4.80;;;17.70;99.90;;;;;;5114940;27;20645;-80
2022/07/22 05:20:59;;;;;;;4.40;4.00;;;17.70;99.90;;;;;;5114802;27;21100;-81
2022/07/22 05:23:26;;;;;;;5.27;4.70;;;17.70;99.90;;;;;;5114158;27;20642;-80
2022/07/22 05:25:53;;;;;;;5.27;4.10;;;17.80;99.90;;;;;;5114106;27;20663;-81
2022/07/22 05:28:20;;;;;;;4.90;4.40;;;17.80;99.90;;;;;;5114725;27;20704;-81
2022/07/22 05:30:47;;;;;;;4.03;3.63;;;17.90;99.90;;;;;;5114480;27;20595;-81
2022/07/22 05:33:14;;;;;;;6.00;4.90;;;18.00;99.90;;;;;;5114334;27;20668;-81
2022/07/22 05:35:40;;;;;;;5.47;4.50;;;18.10;99.90;;;;;;5114605;28;20700;-81
2022/07/22 05:38:09;;;;;;;4.83;3.30;;;18.20;99.90;;;;;;5114641;28;20600;-81
2022/07/22 05:40:35;;;;;;;6.93;4.40;;;18.30;99.90;;;;;;5113903;28;20654;-81
2022/07/22 05:43:02;;;;;;;4.17;3.77;;;18.40;99.90;;;;;;5114374;27;20693;-81
2022/07/22 05:45:29;;;;;;;4.90;4.40;;;18.50;99.90;;;;;;5114931;27;20679;-82
2022/07/22 05:47:56;;;;;;;7.80;4.70;;;18.70;99.90;;;;;;5113401;27;20720;-80
2022/07/22 05:50:23;;;;;;;4.13;3.73;;;18.70;99.90;;;;;;5114801;27;20631;-81
2022/07/22 05:52:50;;;;;;;6.60;5.17;;;18.70;99.90;;;;;;5113922;27;20619;-82
2022/07/22 05:55:18;;;;;;;7.37;5.50;;;18.60;99.90;;;;;;5113973;27;20619;-82
2022/07/22 05:57:45;;;;;;;5.53;4.60;;;18.80;99.90;;;;;;5114665;27;20773;-81
2022/07/22 06:00:13;;;;;;;6.17;5.37;;;18.80;99.90;;;;;;5114524;27;21083;-81
2022/07/22 06:02:41;;;;;;;5.20;3.93;;;18.90;99.90;;;;;;5113946;27;20619;-81
2022/07/22 06:05:09;;;;;;;4.77;4.37;;;18.90;99.90;;;;;;5114309;27;20697;-80
2022/07/22 06:07:35;;;;;;;5.03;3.80;;;19.00;99.90;;;;;;5111906;27;20631;-81
2022/07/22 06:10:03;;;;;;;6.77;4.87;;;19.00;99.90;;;;;;5110868;27;20647;-81
2022/07/22 06:12:31;;;;;;;5.53;4.23;;;19.00;99.90;;;;;;5110498;28;20611;-81
2022/07/22 06:14:58;;;;;;;5.40;4.90;;;18.90;99.90;;;;;;5111117;28;20659;-83
2022/07/22 06:17:25;;;;;;;4.90;4.23;;;19.00;99.90;;;;;;5111253;28;20766;-80
2022/07/22 06:19:52;;;;;;;4.53;4.00;;;19.00;99.90;;;;;;5111443;28;20668;-81
2022/07/22 06:22:18;;;;;;;5.20;4.40;;;19.10;99.90;;;;;;5110639;28;20646;-80
2022/07/22 06:24:45;;;;;;;7.10;5.40;;;19.20;99.90;;;;;;5111044;28;20647;-81
2022/07/22 06:27:12;;;;;;;7.70;4.87;;;19.30;99.90;;;;;;5110920;28;20662;-81
2022/07/22 06:29:41;;;;;;;6.33;5.23;;;19.30;99.90;;;;;;5110662;28;20770;-84
2022/07/22 06:32:08;;;;;;;5.77;4.83;;;19.30;99.90;;;;;;5110606;27;20607;-82
2022/07/22 06:34:35;;;;;;;7.13;6.40;;;19.40;99.90;;;;;;5109979;28;20634;-82
2022/07/22 06:37:02;;;;;;;4.47;4.07;;;19.40;99.90;;;;;;5110648;28;21005;-81
2022/07/22 06:39:29;;;;;;;4.90;4.13;;;19.40;99.90;;;;;;5110626;28;20646;-81
2022/07/22 06:41:56;;;;;;;8.07;5.17;;;19.50;99.90;;;;;;5110301;28;20612;-81
2022/07/22 06:44:23;;;;;;;4.97;4.47;;;19.50;99.90;;;;;;5110000;28;20680;-84
2022/07/22 06:46:51;;;;;;;7.03;4.80;;;19.60;99.90;;;;;;5110447;27;20611;-82
2022/07/22 06:49:18;;;;;;;6.70;5.37;;;19.70;99.90;;;;;;5108579;28;20734;-81
2022/07/22 06:51:44;;;;;;;7.53;4.67;;;19.80;99.90;;;;;;5110383;28;20616;-81
2022/07/22 06:54:11;;;;;;;5.67;4.20;;;19.80;99.90;;;;;;5110027;28;20718;-81
2022/07/22 06:56:38;;;;;;;6.97;5.23;;;19.80;99.90;;;;;;5110265;28;20635;-81
2022/07/22 06:59:05;;;;;;;5.57;5.07;;;19.90;99.90;;;;;;5110221;28;20651;-81
2022/07/22 07:01:32;;;;;;;5.00;4.50;;;20.00;99.90;;;;;;5110048;28;20615;-82
2022/07/22 07:04:01;;;;;;;8.97;5.80;;;20.10;99.90;;;;;;5109172;28;20619;-82
2022/07/22 07:06:29;;;;;;;6.40;5.00;;;20.20;99.90;;;;;;5110155;28;20620;-81
2022/07/22 07:08:57;;;;;;;6.60;5.00;;;20.60;99.90;;;;;;5110142;28;20718;-81
2022/07/22 07:11:24;;;;;;;7.40;5.17;;;20.50;99.90;;;;;;5110232;28;20727;-80
2022/07/22 07:13:51;;;;;;;7.30;5.83;;;20.50;99.90;;;;;;5109820;28;20701;-83
2022/07/22 07:16:18;;;;;;;6.83;5.17;;;20.60;99.90;;;;;;5109125;28;21063;-81
2022/07/22 07:18:45;;;;;;;5.60;4.20;;;20.80;99.90;;;;;;5109746;28;20628;-84
2022/07/22 07:21:13;;;;;;;5.87;4.97;;;21.00;99.90;;;;;;5108978;28;20631;-81
2022/07/22 07:23:40;;;;;;;5.97;5.37;;;21.20;99.50;;;;;;5109267;28;21207;-82
2022/07/22 07:26:07;;;;;;;5.70;5.10;;;21.30;98.80;;;;;;5109134;28;21174;-81
2022/07/22 07:28:34;;;;;;;6.93;6.00;;;21.40;99.50;;;;;;5110286;28;20631;-83
2022/07/22 07:31:01;;;;;;;5.77;4.87;;;21.60;99.50;;;;;;5108742;27;20618;-81
2022/07/22 07:33:28;;;;;;;7.00;5.20;;;21.70;99.00;;;;;;5109280;28;20685;-80
2022/07/22 07:35:55;;;;;;;5.87;5.27;;;21.80;98.70;;;;;;5109312;28;20703;-83
2022/07/22 07:38:23;;;;;;;6.43;5.77;;;22.00;97.60;;;;;;5109900;28;20731;-82
2022/07/22 07:40:50;;;;;;;6.03;5.43;;;22.10;97.90;;;;;;5109267;28;20619;-83
2022/07/22 07:43:17;;;;;;;4.77;4.27;;;22.20;97.50;;;;;;5108824;28;20726;-81
2022/07/22 07:45:44;;;;;;;5.57;5.07;;;22.30;97.30;;;;;;5108826;28;20983;-82
2022/07/22 07:48:12;;;;;;;6.23;5.63;;;22.20;97.40;;;;;;5108309;28;20720;-81
2022/07/22 07:50:39;;;;;;;6.23;5.47;;;22.40;97.30;;;;;;5109443;28;20692;-82
2022/07/22 07:53:06;;;;;;;7.20;5.90;;;22.60;97.50;;;;;;5109560;28;20718;-82
2022/07/22 07:55:36;;;;;;;8.20;5.73;;;22.60;96.40;;;;;;5109776;28;20651;-82
2022/07/22 07:58:03;;;;;;;6.30;5.70;;;22.80;96.40;;;;;;5108856;28;21219;-80
2022/07/22 08:00:32;;;;;;;6.27;5.70;;;22.80;96.00;;;;;;5108925;27;20614;-81
2022/07/22 08:02:59;;;;;;;13.30;6.13;;;22.60;96.60;;;;;;5108715;28;20615;-82
2022/07/22 08:05:26;;;;;;;6.73;5.87;;;22.80;96.30;;;;;;5108679;27;20755;-83
2022/07/22 08:07:54;;;;;;;10.43;6.07;;;22.90;96.40;;;;;;5109155;28;21231;-81
2022/07/22 08:10:21;;;;;;;9.93;6.30;;;23.10;95.90;;;;;;5108660;28;20604;-82
2022/07/22 08:12:50;;;;;;;6.90;5.47;;;23.20;96.20;;;;;;5108049;28;20604;-81
2022/07/22 08:15:17;;;;;;;9.17;7.07;;;23.30;95.60;;;;;;5108716;27;21054;-81
2022/07/22 08:17:44;;;;;;;5.60;4.80;;;23.30;95.60;;;;;;5108740;28;20659;-81
2022/07/22 08:20:11;;;;;;;5.97;5.40;;;23.50;94.40;;;;;;5109232;28;20604;-81
2022/07/22 08:22:38;;;;;;;7.73;5.70;;;23.60;94.70;;;;;;5108048;28;20617;-81
2022/07/22 08:25:06;;;;;;;6.80;6.10;;;23.80;94.90;;;;;;5107934;27;20687;-83
2022/07/22 08:27:32;;;;;;;6.63;6.07;;;23.80;94.00;;;;;;5108796;27;20727;-81
2022/07/22 08:30:04;;;;;;;6.20;5.60;;;23.80;94.50;;;;;;5108409;28;21104;-82
2022/07/22 08:32:31;;;;;;;10.43;6.40;;;23.60;94.90;;;;;;5107612;28;20628;-82
2022/07/22 08:34:58;;;;;;;10.70;5.30;;;23.60;94.60;;;;;;5108343;28;20647;-84
2022/07/22 08:37:25;;;;;;;5.50;5.00;;;23.90;94.20;;;;;;5108049;28;20701;-82
2022/07/22 08:39:53;;;;;;;7.37;6.03;;;24.10;92.60;;;;;;5107944;28;21121;-81
2022/07/22 08:42:21;;;;;;;5.90;5.40;;;24.20;92.50;;;;;;5107731;28;21280;-81
2022/07/22 08:44:48;;;;;;;9.10;5.97;;;24.30;92.80;;;;;;5108483;28;20672;-81
2022/07/22 08:47:21;;;;;;;5.73;5.20;;;24.50;92.60;;;;;;5107652;28;20668;-81
2022/07/22 08:49:48;;;;;;;5.30;4.80;;;24.50;91.50;;;;;;5108385;28;20620;-83
2022/07/22 08:52:15;;;;;;;6.60;6.00;;;24.70;91.40;;;;;;5107191;28;20643;-82
2022/07/22 08:54:42;;;;;;;4.83;4.20;;;24.70;91.40;;;;;;5108394;28;20620;-82
2022/07/22 08:57:09;;;;;;;5.40;4.90;;;24.80;91.70;;;;;;5108232;28;20735;-82
2022/07/22 08:59:50;;;;;;;4.87;4.33;;;25.00;90.60;;;;;;5108288;28;20616;-82
2022/07/22 09:02:19;;;;;;;6.20;5.60;;;25.10;89.80;;;;;;5107603;28;20627;-81
2022/07/22 09:04:54;;;;;;;4.93;4.43;;;25.20;89.40;;;;;;5107456;28;20626;-84
2022/07/22 09:07:29;;;;;;;4.97;4.53;;;25.40;89.30;;;;;;5108338;28;20722;-81
2022/07/22 09:09:57;;;;;;;6.30;5.03;;;25.30;90.30;;;;;;5108261;28;20615;-81
2022/07/22 09:12:24;;;;;;;5.97;4.60;;;25.50;90.40;;;;;;5107607;28;21015;-82
2022/07/22 09:14:54;;;;;;;5.13;4.67;;;25.50;88.60;;;;;;5108310;28;20729;-82
2022/07/22 09:17:27;;;;;;;5.67;5.20;;;25.50;90.80;;;;;;5107769;28;20656;-82
2022/07/22 09:19:54;;;;;;;5.10;4.60;;;25.80;90.30;;;;;;5108340;28;20627;-82
2022/07/22 09:22:41;;;;;;;4.90;3.90;;;25.90;90.00;;;;;;5108247;28;20665;-82
2022/07/22 09:25:26;;;;;;;5.67;5.07;;;25.90;84.80;;;;;;5108667;28;20989;-82
2022/07/22 09:27:55;;;;;;;6.87;4.47;;;26.00;84.70;;;;;;5108932;28;20616;-82
2022/07/22 09:30:23;;;;;;;4.40;4.00;;;26.10;81.20;;;;;;5108142;28;20608;-83
2022/07/22 09:32:54;;;;;;;5.07;4.60;;;26.20;84.20;;;;;;5107321;28;20630;-82
2022/07/22 09:35:21;;;;;;;5.53;5.00;;;26.30;82.80;;;;;;5107926;28;20604;-81
2022/07/22 09:37:53;;;;;;;4.47;4.07;;;26.40;82.20;;;;;;5107652;28;21016;-82
2022/07/22 09:40:22;;;;;;;5.80;4.90;;;26.40;82.80;;;;;;5107771;28;20684;-82
2022/07/22 09:42:51;;;;;;;5.00;4.60;;;26.60;79.90;;;;;;5108393;28;20655;-81
2022/07/22 09:45:19;;;;;;;5.47;4.10;;;26.40;83.20;;;;;;5111735;28;21275;-82
2022/07/22 09:47:48;;;;;;;5.40;4.90;;;26.30;82.00;;;;;;5110645;28;20611;-82
2022/07/22 09:50:18;;;;;;;4.47;4.07;;;26.60;80.00;;;;;;5111462;28;20860;-81
2022/07/22 09:52:46;;;;;;;4.40;4.00;;;26.70;80.10;;;;;;5110484;28;20619;-82
2022/07/22 09:55:16;;;;;;;4.13;3.73;;;26.90;80.30;;;;;;5111523;28;20752;-82
2022/07/22 09:57:43;;;;;;;3.70;3.37;;;26.80;79.10;;;;;;5111838;28;20671;-82
2022/07/22 10:00:11;;;;;;;4.33;3.97;;;26.50;79.50;;;;;;5111541;28;20651;-81
2022/07/22 10:02:43;;;;;;;4.70;4.30;;;26.80;79.50;;;;;;5110506;28;20671;-81
2022/07/22 10:05:13;;;;;;;4.83;3.87;;;27.00;78.50;;;;;;5111050;28;20681;-82
2022/07/22 10:07:43;;;;;;;5.20;4.00;;;27.10;79.60;;;;;;5111599;28;20676;-82
2022/07/22 10:10:11;;;;;;;4.93;4.53;;;27.20;76.80;;;;;;5111782;28;20607;-82
2022/07/22 10:12:39;;;;;;;4.70;4.30;;;27.30;76.90;;;;;;5110695;28;20635;-82
2022/07/22 10:15:07;;;;;;;4.47;4.00;;;27.60;77.00;;;;;;5111280;28;20607;-83
2022/07/22 10:17:36;;;;;;;4.57;4.27;;;27.70;77.00;;;;;;5110544;28;20641;-82
2022/07/22 10:20:03;;;;;;;4.97;4.57;;;27.70;75.00;;;;;;5111202;28;20646;-82
2022/07/22 10:22:54;;;;;;;5.30;4.70;;;27.90;78.10;;;;;;5109959;28;20619;-82
2022/07/22 10:25:23;;;;;;;5.43;5.03;;;27.90;74.90;;;;;;5110848;28;20620;-83
2022/07/22 10:27:53;;;;;;;4.77;4.37;;;28.00;74.70;;;;;;5111108;28;20616;-81
2022/07/22 10:30:22;;;;;;;5.07;4.63;;;28.20;74.40;;;;;;5110553;28;20615;-82
2022/07/22 10:33:10;;;;;;;5.23;4.83;;;28.20;72.00;;;;;;5110512;28;20702;-82
2022/07/22 10:35:38;;;;;;;5.13;4.63;;;28.40;74.90;;;;;;5110847;28;21270;-82
2022/07/22 10:38:09;;;;;;;6.20;5.20;;;28.40;74.80;;;;;;5111081;28;20959;-82
2022/07/22 10:40:54;;;;;;;5.90;5.50;;;28.40;76.60;;;;;;5109990;28;20623;-82
2022/07/22 10:43:23;;;;;;;4.57;4.17;;;28.60;72.80;;;;;;5110645;28;21009;-84
2022/07/22 10:45:53;;;;;;;5.23;4.83;;;28.60;70.40;;;;;;5111590;28;20688;-82
2022/07/22 10:48:22;;;;;;;4.67;4.27;;;28.90;73.50;;;;;;5109554;28;20706;-83
2022/07/22 10:51:07;;;;;;;4.97;4.57;;;29.10;71.40;;;;;;5110554;28;20607;-83
2022/07/22 10:53:44;;;;;;;5.17;4.67;;;29.20;70.20;;;;;;5109521;28;20886;-82
2022/07/22 10:56:19;;;;;;;5.37;4.87;;;29.10;69.90;;;;;;5110213;28;21149;-82
2022/07/22 10:58:52;;;;;;;4.80;4.40;;;29.20;71.20;;;;;;5110526;28;20762;-82
2022/07/22 11:01:22;;;;;;;5.00;4.60;;;29.40;69.10;;;;;;5109842;28;20630;-83
2022/07/22 11:03:50;;;;;;;5.23;4.73;;;29.80;68.00;;;;;;5109839;28;21039;-83
2022/07/22 11:06:20;;;;;;;4.30;3.90;;;30.10;66.20;;;;;;5110101;28;20596;-83
2022/07/22 11:08:50;;;;;;;5.00;4.53;;;30.00;63.50;;;;;;5110524;28;20650;-83
2022/07/22 11:11:18;;;;;;;4.30;3.97;;;30.20;64.00;;;;;;5109725;28;20615;-83
2022/07/22 11:13:45;;;;;;;4.70;4.30;;;30.30;64.30;;;;;;5109712;28;20630;-83
2022/07/22 11:16:23;;;;;;;4.13;3.77;;;30.30;63.30;;;;;;5109535;28;20619;-82
2022/07/22 11:18:52;;;;;;;5.07;4.67;;;30.30;62.40;;;;;;5110333;28;20669;-82
2022/07/22 11:21:21;;;;;;;4.40;4.00;;;30.60;61.40;;;;;;5109788;28;20647;-83
2022/07/22 11:23:51;;;;;;;4.67;4.27;;;30.80;60.20;;;;;;5109176;28;20612;-83
2022/07/22 11:26:23;;;;;;;4.90;4.50;;;30.90;61.40;;;;;;5108963;28;21192;-83
2022/07/22 11:28:50;;;;;;;5.20;4.70;;;31.20;58.80;;;;;;5110268;28;20628;-83
2022/07/22 11:31:19;;;;;;;4.40;4.00;;;31.20;57.50;;;;;;5109405;28;20607;-83
2022/07/22 11:33:46;;;;;;;4.33;4.00;;;31.50;57.40;;;;;;5109159;28;20738;-83
2022/07/22 11:36:14;;;;;;;5.40;4.47;;;31.70;56.60;;;;;;5109247;28;20697;-83
2022/07/22 11:38:42;;;;;;;4.70;4.30;;;32.10;57.60;;;;;;5109473;28;20770;-83
2022/07/22 11:41:11;;;;;;;4.57;4.27;;;32.40;55.60;;;;;;5109583;28;20644;-83
2022/07/22 11:43:42;;;;;;;4.33;3.93;;;32.60;57.30;;;;;;5108886;28;21199;-83
2022/07/22 11:46:09;;;;;;;4.70;4.20;;;32.80;54.70;;;;;;5108982;28;21195;-83
2022/07/22 11:48:37;;;;;;;5.00;4.37;;;33.00;53.80;;;;;;5107960;28;20642;-83
2022/07/22 11:51:05;;;;;;;4.47;3.60;;;33.20;55.90;;;;;;5109055;28;20704;-83
2022/07/22 11:53:32;;;;;;;4.43;4.03;;;33.20;55.10;;;;;;5108290;28;20707;-83
2022/07/22 11:55:59;;;;;;;4.77;4.37;;;33.60;57.50;;;;;;5109243;28;20719;-83
2022/07/22 11:58:42;;;;;;;4.60;4.20;;;34.10;52.00;;;;;;5109194;28;20695;-83
2022/07/22 12:01:11;;;;;;;4.77;4.43;;;34.30;52.10;;;;;;5109032;28;21042;-84
2022/07/22 12:03:40;;;;;;;5.00;4.50;;;34.80;50.40;;;;;;5109655;28;20644;-83
2022/07/22 12:06:09;;;;;;;4.47;4.17;;;35.10;49.80;;;;;;5108194;28;20623;-83
2022/07/22 12:08:41;;;;;;;4.27;3.80;;;35.60;50.60;;;;;;5110018;28;20734;-85
2022/07/22 12:11:10;;;;;;;3.83;3.53;;;36.00;49.50;;;;;;5109499;28;21218;-84
2022/07/22 12:13:37;;;;;;;4.93;4.53;;;36.90;47.70;;;;;;5108786;28;20615;-85
2022/07/22 12:16:23;;;;;;;4.13;3.83;;;38.00;45.70;;;;;;5108815;28;20633;-84
2022/07/22 12:18:56;;;;;;;4.50;4.17;;;38.10;45.40;;;;;;5109374;28;20252;-84
2022/07/22 12:21:24;;;;;;;4.53;4.13;;;38.30;45.60;;;;;;5108727;28;20286;-83
2022/07/22 12:23:53;;;;;;;4.32;4.03;;;38.80;44.30;;;;;;5108737;28;20593;-81
2022/07/22 12:26:20;;;;;;;4.03;3.72;;;39.00;42.80;;;;;;5108462;28;20203;-82
2022/07/22 12:28:47;;;;;;;4.95;4.55;;;39.10;42.80;;;;;;5108289;28;20695;-82
2022/07/22 12:31:14;;;;;;;4.00;3.70;;;39.50;43.30;;;;;;5108503;28;20289;-83
2022/07/22 12:33:50;;;;;;;4.53;4.22;;;39.70;42.20;;;;;;5108309;28;20275;-83
2022/07/22 12:36:16;;;;;;;4.68;4.28;;;40.30;42.20;;;;;;5108572;28;20211;-83
2022/07/22 12:38:43;;;;;;;4.28;3.97;;;40.50;40.40;;;;;;5108815;28;20202;-83
2022/07/22 12:41:25;;;;;;;4.18;3.80;;;40.60;40.40;;;;;;5108228;28;20212;-83
2022/07/22 12:43:52;;;;;;;4.45;4.15;;;40.70;40.70;;;;;;5108336;28;20284;-83
2022/07/22 12:46:20;;;;;;;4.05;3.75;;;40.50;40.30;;;;;;5108405;28;20663;-83
2022/07/22 12:48:54;;;;;;;5.18;4.88;;;40.40;39.70;;;;;;5108088;28;20308;-83
2022/07/22 12:51:21;;;;;;;3.90;3.60;;;40.70;40.80;;;;;;5108350;28;20231;-83